Green, Ohio
Current Conditions -  °F | °C
As of 9:32 AM on Thursday 29 Jan 2015 (Local Time) from KCAK Reporting Station
Freezing Rain Freezing Rain  
Wind Chill: 20°   Ceiling: 4500
Heat Index: 31°   Visibility: 8mi
Dew Point: 20°   Wind: 15mph
Humidity: 64%   Direction: 170°S
Pressure: 29.87"   Gusts: NA
Location:  40.95°N, 81.49°W
Report Text: KCAK 291432Z 17013KT 8SM -FZRA BKN045 OVC075 M01/M07 A2987 RMK AO2 PK WND 18026/1422 PLB12E28 P0001 T10061067 $
Loading
Personal Weather Stations






























Interactive Weather Map New forecast layout! Learn more

10-Day Weather Forecast

Advertisements
Track Severe Weather on mobile